sensor_id;sensor_type;location;lat;lon;timestamp;pressure;altitude;pressure_sealevel;temperature;humidity
54407;BME280;40313;50.308;30.374;2023-11-18T00:02:05;99741.28;;;3.14;100.00
54407;BME280;40313;50.308;30.374;2023-11-18T00:04:33;99751.53;;;2.80;100.00
54407;BME280;40313;50.308;30.374;2023-11-18T00:07:00;99728.25;;;2.45;100.00
54407;BME280;40313;50.308;30.374;2023-11-18T00:09:27;99748.69;;;2.53;100.00
54407;BME280;40313;50.308;30.374;2023-11-18T00:11:53;99759.00;;;2.53;100.00
54407;BME280;40313;50.308;30.374;2023-11-18T00:14:21;99751.63;;;2.37;100.00
54407;BME280;40313;50.308;30.374;2023-11-18T00:16:48;99748.16;;;2.37;100.00
54407;BME280;40313;50.308;30.374;2023-11-18T00:19:15;99749.25;;;2.27;100.00
54407;BME280;40313;50.308;30.374;2023-11-18T00:21:42;99739.63;;;2.36;100.00
54407;BME280;40313;50.308;30.374;2023-11-18T00:24:09;99757.84;;;2.25;100.00
54407;BME280;40313;50.308;30.374;2023-11-18T00:26:36;99763.09;;;3.01;100.00
54407;BME280;40313;50.308;30.374;2023-11-18T00:29:03;99763.81;;;2.28;100.00
54407;BME280;40313;50.308;30.374;2023-11-18T00:31:31;99774.22;;;2.21;100.00
54407;BME280;40313;50.308;30.374;2023-11-18T00:33:58;99761.88;;;2.39;100.00
54407;BME280;40313;50.308;30.374;2023-11-18T00:36:25;99756.13;;;2.26;100.00
54407;BME280;40313;50.308;30.374;2023-11-18T00:38:52;99747.50;;;2.27;100.00
54407;BME280;40313;50.308;30.374;2023-11-18T00:41:19;99757.25;;;2.13;100.00
54407;BME280;40313;50.308;30.374;2023-11-18T00:43:46;99736.59;;;2.17;100.00
54407;BME280;40313;50.308;30.374;2023-11-18T00:46:13;99750.63;;;2.82;100.00
54407;BME280;40313;50.308;30.374;2023-11-18T00:48:41;99754.25;;;2.33;100.00
54407;BME280;40313;50.308;30.374;2023-11-18T00:51:08;99747.25;;;2.39;100.00
54407;BME280;40313;50.308;30.374;2023-11-18T00:53:35;99740.72;;;2.24;100.00
54407;BME280;40313;50.308;30.374;2023-11-18T00:56:02;99743.94;;;2.34;100.00
54407;BME280;40313;50.308;30.374;2023-11-18T00:58:33;99727.16;;;2.16;100.00
54407;BME280;40313;50.308;30.374;2023-11-18T01:01:02;99733.28;;;3.59;100.00
54407;BME280;40313;50.308;30.374;2023-11-18T01:03:32;99731.31;;;3.69;100.00
54407;BME280;40313;50.308;30.374;2023-11-18T01:06:00;99734.91;;;2.55;100.00
54407;BME280;40313;50.308;30.374;2023-11-18T01:08:27;99735.84;;;2.11;100.00
54407;BME280;40313;50.308;30.374;2023-11-18T01:10:54;99746.84;;;2.19;100.00
54407;BME280;40313;50.308;30.374;2023-11-18T01:13:21;99737.53;;;2.13;100.00
54407;BME280;40313;50.308;30.374;2023-11-18T01:15:48;99740.97;;;2.12;100.00
54407;BME280;40313;50.308;30.374;2023-11-18T01:18:15;99729.97;;;2.04;100.00
54407;BME280;40313;50.308;30.374;2023-11-18T01:20:43;99727.13;;;2.18;100.00
54407;BME280;40313;50.308;30.374;2023-11-18T01:23:11;99722.88;;;2.15;100.00
54407;BME280;40313;50.308;30.374;2023-11-18T01:25:38;99727.41;;;2.04;100.00
54407;BME280;40313;50.308;30.374;2023-11-18T01:28:05;99727.19;;;2.15;100.00
54407;BME280;40313;50.308;30.374;2023-11-18T01:30:32;99722.75;;;2.21;100.00
54407;BME280;40313;50.308;30.374;2023-11-18T01:32:59;99727.78;;;2.28;100.00
54407;BME280;40313;50.308;30.374;2023-11-18T01:35:26;99736.31;;;2.30;100.00
54407;BME280;40313;50.308;30.374;2023-11-18T01:37:53;99732.28;;;2.18;100.00
54407;BME280;40313;50.308;30.374;2023-11-18T01:40:22;99736.69;;;2.11;100.00
54407;BME280;40313;50.308;30.374;2023-11-18T01:42:49;99734.88;;;2.16;100.00
54407;BME280;40313;50.308;30.374;2023-11-18T01:45:16;99727.09;;;2.19;100.00
54407;BME280;40313;50.308;30.374;2023-11-18T01:47:44;99742.72;;;2.10;100.00
54407;BME280;40313;50.308;30.374;2023-11-18T01:50:13;99740.25;;;2.04;100.00
54407;BME280;40313;50.308;30.374;2023-11-18T01:52:41;99745.25;;;2.13;100.00
54407;BME280;40313;50.308;30.374;2023-11-18T01:55:08;99728.88;;;2.16;100.00
54407;BME280;40313;50.308;30.374;2023-11-18T01:57:37;99746.66;;;2.27;100.00
54407;BME280;40313;50.308;30.374;2023-11-18T02:00:06;99740.91;;;2.15;100.00
54407;BME280;40313;50.308;30.374;2023-11-18T02:02:36;99748.69;;;2.92;100.00
54407;BME280;40313;50.308;30.374;2023-11-18T02:05:05;99745.44;;;3.20;100.00
54407;BME280;40313;50.308;30.374;2023-11-18T02:07:33;99744.84;;;2.33;100.00
54407;BME280;40313;50.308;30.374;2023-11-18T02:10:01;99739.03;;;2.23;100.00
54407;BME280;40313;50.308;30.374;2023-11-18T02:12:36;99747.88;;;2.10;100.00
54407;BME280;40313;50.308;30.374;2023-11-18T02:15:07;99754.91;;;2.02;100.00
54407;BME280;40313;50.308;30.374;2023-11-18T02:17:38;99759.19;;;2.00;100.00
54407;BME280;40313;50.308;30.374;2023-11-18T02:20:07;99754.09;;;1.98;100.00
54407;BME280;40313;50.308;30.374;2023-11-18T02:22:40;99754.97;;;1.99;100.00
54407;BME280;40313;50.308;30.374;2023-11-18T02:25:09;99754.91;;;2.02;100.00
54407;BME280;40313;50.308;30.374;2023-11-18T02:27:37;99763.06;;;2.22;100.00
54407;BME280;40313;50.308;30.374;2023-11-18T02:30:05;99764.00;;;2.18;100.00
54407;BME280;40313;50.308;30.374;2023-11-18T02:32:41;99759.88;;;2.10;100.00
54407;BME280;40313;50.308;30.374;2023-11-18T02:35:13;99756.19;;;2.21;100.00
54407;BME280;40313;50.308;30.374;2023-11-18T02:37:44;99753.88;;;2.90;100.00
54407;BME280;40313;50.308;30.374;2023-11-18T02:40:16;99741.28;;;3.50;100.00
54407;BME280;40313;50.308;30.374;2023-11-18T02:42:48;99739.13;;;2.19;100.00
54407;BME280;40313;50.308;30.374;2023-11-18T02:45:19;99737.69;;;2.04;100.00
54407;BME280;40313;50.308;30.374;2023-11-18T02:47:47;99745.41;;;2.04;100.00
54407;BME280;40313;50.308;30.374;2023-11-18T02:50:14;99743.91;;;1.94;100.00
54407;BME280;40313;50.308;30.374;2023-11-18T02:52:44;99743.63;;;2.07;100.00
54407;BME280;40313;50.308;30.374;2023-11-18T02:55:11;99742.78;;;2.05;100.00
54407;BME280;40313;50.308;30.374;2023-11-18T02:57:38;99735.56;;;2.24;100.00
54407;BME280;40313;50.308;30.374;2023-11-18T03:02:31;99733.03;;;3.00;100.00
54407;BME280;40313;50.308;30.374;2023-11-18T03:04:58;99750.41;;;2.12;100.00
54407;BME280;40313;50.308;30.374;2023-11-18T03:07:25;99752.25;;;2.05;100.00
54407;BME280;40313;50.308;30.374;2023-11-18T03:09:52;99758.22;;;2.07;100.00
54407;BME280;40313;50.308;30.374;2023-11-18T03:12:21;99754.00;;;2.03;100.00
54407;BME280;40313;50.308;30.374;2023-11-18T03:14:48;99753.06;;;2.07;100.00
54407;BME280;40313;50.308;30.374;2023-11-18T03:17:15;99759.13;;;2.03;100.00
54407;BME280;40313;50.308;30.374;2023-11-18T03:19:43;99752.41;;;1.96;100.00
54407;BME280;40313;50.308;30.374;2023-11-18T03:22:09;99759.91;;;2.08;100.00
54407;BME280;40313;50.308;30.374;2023-11-18T03:24:38;99760.75;;;2.10;100.00
54407;BME280;40313;50.308;30.374;2023-11-18T03:27:05;99755.59;;;2.08;100.00
54407;BME280;40313;50.308;30.374;2023-11-18T03:29:34;99762.47;;;2.08;100.00
54407;BME280;40313;50.308;30.374;2023-11-18T03:32:01;99753.13;;;2.04;100.00
54407;BME280;40313;50.308;30.374;2023-11-18T03:34:29;99758.22;;;2.07;100.00
54407;BME280;40313;50.308;30.374;2023-11-18T03:36:57;99760.63;;;2.16;100.00
54407;BME280;40313;50.308;30.374;2023-11-18T03:39:24;99756.34;;;2.15;100.00
54407;BME280;40313;50.308;30.374;2023-11-18T03:41:50;99754.78;;;2.06;100.00
54407;BME280;40313;50.308;30.374;2023-11-18T03:44:17;99745.34;;;2.07;100.00
54407;BME280;40313;50.308;30.374;2023-11-18T03:46:44;99749.63;;;2.08;100.00
54407;BME280;40313;50.308;30.374;2023-11-18T03:49:10;99745.25;;;2.13;100.00
54407;BME280;40313;50.308;30.374;2023-11-18T03:51:37;99747.28;;;1.96;100.00
54407;BME280;40313;50.308;30.374;2023-11-18T03:54:06;99749.69;;;2.05;100.00
54407;BME280;40313;50.308;30.374;2023-11-18T03:56:33;99753.97;;;2.06;100.00
54407;BME280;40313;50.308;30.374;2023-11-18T03:59:00;99757.56;;;1.96;100.00
54407;BME280;40313;50.308;30.374;2023-11-18T04:01:29;99764.53;;;1.90;100.00
54407;BME280;40313;50.308;30.374;2023-11-18T04:03:57;99762.25;;;3.00;100.00
54407;BME280;40313;50.308;30.374;2023-11-18T04:06:24;99775.94;;;2.22;100.00
54407;BME280;40313;50.308;30.374;2023-11-18T04:08:51;99769.44;;;2.03;100.00
54407;BME280;40313;50.308;30.374;2023-11-18T04:11:19;99770.28;;;2.05;100.00
54407;BME280;40313;50.308;30.374;2023-11-18T04:13:46;99764.25;;;2.06;100.00
54407;BME280;40313;50.308;30.374;2023-11-18T04:16:13;99768.78;;;1.93;100.00
54407;BME280;40313;50.308;30.374;2023-11-18T04:18:40;99774.63;;;2.00;100.00
54407;BME280;40313;50.308;30.374;2023-11-18T04:21:08;99768.50;;;2.07;100.00
54407;BME280;40313;50.308;30.374;2023-11-18T04:23:36;99766.69;;;2.12;100.00
54407;BME280;40313;50.308;30.374;2023-11-18T04:26:03;99765.25;;;1.99;100.00
54407;BME280;40313;50.308;30.374;2023-11-18T04:28:31;99771.09;;;2.05;100.00
54407;BME280;40313;50.308;30.374;2023-11-18T04:30:58;99765.19;;;2.02;100.00
54407;BME280;40313;50.308;30.374;2023-11-18T04:33:26;99766.25;;;1.92;100.00
54407;BME280;40313;50.308;30.374;2023-11-18T04:35:55;99768.59;;;2.02;100.00
54407;BME280;40313;50.308;30.374;2023-11-18T04:38:22;99765.81;;;2.94;100.00
54407;BME280;40313;50.308;30.374;2023-11-18T04:40:51;99775.59;;;1.94;100.00
54407;BME280;40313;50.308;30.374;2023-11-18T04:43:19;99775.72;;;1.88;100.00
54407;BME280;40313;50.308;30.374;2023-11-18T04:45:47;99778.06;;;2.02;100.00
54407;BME280;40313;50.308;30.374;2023-11-18T04:48:14;99768.69;;;3.18;100.00
54407;BME280;40313;50.308;30.374;2023-11-18T04:50:41;99769.94;;;3.38;100.00
54407;BME280;40313;50.308;30.374;2023-11-18T04:53:08;99773.84;;;2.40;100.00
54407;BME280;40313;50.308;30.374;2023-11-18T04:55:36;99779.38;;;2.23;100.00
54407;BME280;40313;50.308;30.374;2023-11-18T04:58:03;99777.19;;;2.84;100.00
54407;BME280;40313;50.308;30.374;2023-11-18T05:00:31;99789.81;;;2.14;100.00
54407;BME280;40313;50.308;30.374;2023-11-18T05:02:59;99786.75;;;1.95;100.00
54407;BME280;40313;50.308;30.374;2023-11-18T05:05:26;99793.78;;;3.10;100.00
54407;BME280;40313;50.308;30.374;2023-11-18T05:07:52;99789.81;;;2.14;100.00
54407;BME280;40313;50.308;30.374;2023-11-18T05:10:19;99786.66;;;1.99;100.00
54407;BME280;40313;50.308;30.374;2023-11-18T05:12:46;99789.97;;;2.06;100.00
54407;BME280;40313;50.308;30.374;2023-11-18T05:15:21;99793.66;;;1.93;100.00
54407;BME280;40313;50.308;30.374;2023-11-18T05:17:50;99808.41;;;1.81;100.00
54407;BME280;40313;50.308;30.374;2023-11-18T05:20:18;99809.25;;;1.83;100.00
54407;BME280;40313;50.308;30.374;2023-11-18T05:22:45;99812.69;;;1.82;100.00
54407;BME280;40313;50.308;30.374;2023-11-18T05:25:12;99819.56;;;1.83;100.00
54407;BME280;40313;50.308;30.374;2023-11-18T05:27:38;99823.81;;;1.83;100.00
54407;BME280;40313;50.308;30.374;2023-11-18T05:30:07;99827.28;;;1.82;100.00
54407;BME280;40313;50.308;30.374;2023-11-18T05:32:34;99823.84;;;3.11;100.00
54407;BME280;40313;50.308;30.374;2023-11-18T05:35:03;99834.03;;;1.89;100.00
54407;BME280;40313;50.308;30.374;2023-11-18T05:37:31;99833.28;;;1.82;100.00
54407;BME280;40313;50.308;30.374;2023-11-18T05:40:01;99831.06;;;1.61;100.00
54407;BME280;40313;50.308;30.374;2023-11-18T05:42:32;99839.63;;;1.61;100.00
54407;BME280;40313;50.308;30.374;2023-11-18T05:44:58;99853.53;;;1.49;100.00
54407;BME280;40313;50.308;30.374;2023-11-18T05:47:26;99850.91;;;1.52;100.00
54407;BME280;40313;50.308;30.374;2023-11-18T05:49:53;99862.16;;;1.45;100.00
54407;BME280;40313;50.308;30.374;2023-11-18T05:52:19;99860.72;;;1.29;100.00
54407;BME280;40313;50.308;30.374;2023-11-18T05:54:49;99858.81;;;1.38;100.00
54407;BME280;40313;50.308;30.374;2023-11-18T05:57:15;99870.16;;;1.27;100.00
54407;BME280;40313;50.308;30.374;2023-11-18T05:59:43;99868.28;;;1.36;100.00
54407;BME280;40313;50.308;30.374;2023-11-18T06:02:09;99875.16;;;1.36;100.00
54407;BME280;40313;50.308;30.374;2023-11-18T06:04:38;99879.13;;;1.55;100.00
54407;BME280;40313;50.308;30.374;2023-11-18T06:07:07;99877.75;;;1.36;100.00
54407;BME280;40313;50.308;30.374;2023-11-18T06:09:34;99882.63;;;1.53;100.00
54407;BME280;40313;50.308;30.374;2023-11-18T06:12:02;99883.69;;;1.38;100.00
54407;BME280;40313;50.308;30.374;2023-11-18T06:14:34;99888.97;;;1.29;100.00
54407;BME280;40313;50.308;30.374;2023-11-18T06:17:01;99895.78;;;1.31;100.00
54407;BME280;40313;50.308;30.374;2023-11-18T06:19:27;99889.69;;;1.40;100.00
54407;BME280;40313;50.308;30.374;2023-11-18T06:21:54;99890.94;;;2.20;100.00
54407;BME280;40313;50.308;30.374;2023-11-18T06:24:21;99885.63;;;1.22;100.00
54407;BME280;40313;50.308;30.374;2023-11-18T06:26:47;99891.25;;;1.49;100.00
54407;BME280;40313;50.308;30.374;2023-11-18T06:29:16;99885.97;;;1.58;100.00
54407;BME280;40313;50.308;30.374;2023-11-18T06:31:44;99890.50;;;1.42;100.00
54407;BME280;40313;50.308;30.374;2023-11-18T06:34:10;99896.56;;;1.93;100.00
54407;BME280;40313;50.308;30.374;2023-11-18T06:36:38;99896.31;;;1.55;100.00
54407;BME280;40313;50.308;30.374;2023-11-18T06:39:04;99898.72;;;1.64;100.00
54407;BME280;40313;50.308;30.374;2023-11-18T06:41:31;99902.69;;;1.84;100.00
54407;BME280;40313;50.308;30.374;2023-11-18T06:44:00;99906.13;;;1.86;100.00
54407;BME280;40313;50.308;30.374;2023-11-18T06:46:35;99908.25;;;1.59;100.00
54407;BME280;40313;50.308;30.374;2023-11-18T06:49:05;99909.91;;;1.62;100.00
54407;BME280;40313;50.308;30.374;2023-11-18T06:51:33;99917.66;;;1.60;100.00
54407;BME280;40313;50.308;30.374;2023-11-18T06:54:01;99922.66;;;1.69;100.00
54407;BME280;40313;50.308;30.374;2023-11-18T06:56:34;99917.69;;;1.57;100.00
54407;BME280;40313;50.308;30.374;2023-11-18T06:59:01;99920.25;;;1.57;100.00
54407;BME280;40313;50.308;30.374;2023-11-18T07:01:29;99918.75;;;1.44;100.00
54407;BME280;40313;50.308;30.374;2023-11-18T07:03:57;99912.44;;;2.65;100.00
54407;BME280;40313;50.308;30.374;2023-11-18T07:06:24;99919.47;;;1.53;100.00
54407;BME280;40313;50.308;30.374;2023-11-18T07:08:53;99911.00;;;1.45;100.00
54407;BME280;40313;50.308;30.374;2023-11-18T07:11:20;99905.03;;;1.99;100.00
54407;BME280;40313;50.308;30.374;2023-11-18T07:13:48;99914.16;;;1.66;100.00
54407;BME280;40313;50.308;30.374;2023-11-18T07:16:15;99910.50;;;1.79;100.00
54407;BME280;40313;50.308;30.374;2023-11-18T07:18:42;99908.72;;;1.84;100.00
54407;BME280;40313;50.308;30.374;2023-11-18T07:21:10;99906.84;;;1.93;100.00
54407;BME280;40313;50.308;30.374;2023-11-18T07:23:37;99916.94;;;2.05;100.00
54407;BME280;40313;50.308;30.374;2023-11-18T07:26:04;99910.88;;;2.09;100.00
54407;BME280;40313;50.308;30.374;2023-11-18T07:28:31;99907.19;;;2.22;100.00
54407;BME280;40313;50.308;30.374;2023-11-18T07:30:57;99909.16;;;2.56;100.00
54407;BME280;40313;50.308;30.374;2023-11-18T07:33:25;99913.84;;;2.34;100.00
54407;BME280;40313;50.308;30.374;2023-11-18T07:35:52;99916.31;;;2.40;100.00
54407;BME280;40313;50.308;30.374;2023-11-18T07:38:20;99914.03;;;2.25;100.00
54407;BME280;40313;50.308;30.374;2023-11-18T07:40:47;99919.47;;;2.56;100.00
54407;BME280;40313;50.308;30.374;2023-11-18T07:43:14;99922.09;;;2.53;100.00
54407;BME280;40313;50.308;30.374;2023-11-18T07:45:41;99914.41;;;3.72;100.00
54407;BME280;40313;50.308;30.374;2023-11-18T07:48:09;99915.22;;;2.98;100.00
54407;BME280;40313;50.308;30.374;2023-11-18T07:50:37;99927.28;;;2.52;100.00
54407;BME280;40313;50.308;30.374;2023-11-18T07:53:05;99925.06;;;2.77;100.00
54407;BME280;40313;50.308;30.374;2023-11-18T07:55:34;99921.91;;;2.63;100.00
54407;BME280;40313;50.308;30.374;2023-11-18T07:58:04;99917.34;;;2.75;100.00
54407;BME280;40313;50.308;30.374;2023-11-18T08:00:36;99915.81;;;3.50;100.00
54407;BME280;40313;50.308;30.374;2023-11-18T08:03:04;99923.50;;;3.12;100.00
54407;BME280;40313;50.308;30.374;2023-11-18T08:05:32;99934.72;;;3.09;100.00
54407;BME280;40313;50.308;30.374;2023-11-18T08:07:59;99936.28;;;3.17;100.00
54407;BME280;40313;50.308;30.374;2023-11-18T08:10:26;99937.81;;;3.25;100.00
54407;BME280;40313;50.308;30.374;2023-11-18T08:12:55;99938.78;;;3.20;100.00
54407;BME280;40313;50.308;30.374;2023-11-18T08:15:22;99933.28;;;3.37;100.00
54407;BME280;40313;50.308;30.374;2023-11-18T08:17:48;99938.66;;;3.27;100.00
54407;BME280;40313;50.308;30.374;2023-11-18T08:20:17;99936.72;;;3.36;100.00
54407;BME280;40313;50.308;30.374;2023-11-18T08:22:44;99936.00;;;3.31;100.00
54407;BME280;40313;50.308;30.374;2023-11-18T08:25:10;99933.06;;;4.84;100.00
54407;BME280;40313;50.308;30.374;2023-11-18T08:27:38;99931.16;;;3.92;100.00
54407;BME280;40313;50.308;30.374;2023-11-18T08:30:08;99931.03;;;4.31;100.00
54407;BME280;40313;50.308;30.374;2023-11-18T08:32:37;99940.41;;;4.01;100.00
54407;BME280;40313;50.308;30.374;2023-11-18T08:35:05;99952.38;;;4.05;100.00
54407;BME280;40313;50.308;30.374;2023-11-18T08:37:33;99959.03;;;3.77;100.00
54407;BME280;40313;50.308;30.374;2023-11-18T08:40:00;99956.03;;;3.57;100.00
54407;BME280;40313;50.308;30.374;2023-11-18T08:42:27;99960.91;;;3.71;100.00
54407;BME280;40313;50.308;30.374;2023-11-18T08:44:54;99960.69;;;3.80;100.00
54407;BME280;40313;50.308;30.374;2023-11-18T08:47:22;99953.56;;;4.26;100.00
54407;BME280;40313;50.308;30.374;2023-11-18T08:49:49;99958.84;;;4.21;100.00
54407;BME280;40313;50.308;30.374;2023-11-18T08:52:16;99952.13;;;4.14;100.00
54407;BME280;40313;50.308;30.374;2023-11-18T08:54:43;99939.13;;;5.99;100.00
54407;BME280;40313;50.308;30.374;2023-11-18T08:57:24;99950.09;;;5.79;100.00
54407;BME280;40313;50.308;30.374;2023-11-18T08:59:51;99942.03;;;5.62;100.00
54407;BME280;40313;50.308;30.374;2023-11-18T09:02:18;99931.88;;;5.54;100.00
54407;BME280;40313;50.308;30.374;2023-11-18T09:04:49;99941.72;;;5.13;100.00
54407;BME280;40313;50.308;30.374;2023-11-18T09:07:17;99933.72;;;5.22;100.00
54407;BME280;40313;50.308;30.374;2023-11-18T09:09:44;99936.88;;;3.67;100.00
54407;BME280;40313;50.308;30.374;2023-11-18T09:12:14;99929.84;;;3.38;100.00
54407;BME280;40313;50.308;30.374;2023-11-18T09:14:43;99926.16;;;3.48;100.00
54407;BME280;40313;50.308;30.374;2023-11-18T09:17:13;99927.28;;;3.36;100.00
54407;BME280;40313;50.308;30.374;2023-11-18T09:19:40;99920.72;;;3.60;100.00
54407;BME280;40313;50.308;30.374;2023-11-18T09:22:07;99919.69;;;3.68;100.00
54407;BME280;40313;50.308;30.374;2023-11-18T09:24:38;99916.38;;;3.62;100.00
54407;BME280;40313;50.308;30.374;2023-11-18T09:27:05;99921.03;;;3.46;100.00
54407;BME280;40313;50.308;30.374;2023-11-18T09:29:34;99918.53;;;3.43;100.00
54407;BME280;40313;50.308;30.374;2023-11-18T09:32:01;99909.66;;;3.16;100.00
54407;BME280;40313;50.308;30.374;2023-11-18T09:34:31;99903.25;;;3.34;100.00
54407;BME280;40313;50.308;30.374;2023-11-18T09:36:58;99897.69;;;3.89;100.00
54407;BME280;40313;50.308;30.374;2023-11-18T09:39:26;99901.47;;;3.74;100.00
54407;BME280;40313;50.308;30.374;2023-11-18T09:42:05;99892.69;;;3.45;100.00
54407;BME280;40313;50.308;30.374;2023-11-18T09:44:35;99892.31;;;3.24;100.00
54407;BME280;40313;50.308;30.374;2023-11-18T09:47:04;99888.19;;;3.16;100.00
54407;BME280;40313;50.308;30.374;2023-11-18T09:49:40;99887.41;;;3.12;100.00
54407;BME280;40313;50.308;30.374;2023-11-18T09:52:07;99881.00;;;3.30;100.00
54407;BME280;40313;50.308;30.374;2023-11-18T09:54:41;99870.63;;;3.33;100.00
54407;BME280;40313;50.308;30.374;2023-11-18T09:57:16;99877.84;;;3.19;100.00
54407;BME280;40313;50.308;30.374;2023-11-18T09:59:52;99865.97;;;3.11;100.00
54407;BME280;40313;50.308;30.374;2023-11-18T10:02:24;99873.09;;;2.99;100.00
54407;BME280;40313;50.308;30.374;2023-11-18T10:04:52;99870.66;;;2.92;100.00
54407;BME280;40313;50.308;30.374;2023-11-18T10:07:23;99866.66;;;2.78;100.00
54407;BME280;40313;50.308;30.374;2023-11-18T10:09:54;99870.78;;;2.86;100.00
54407;BME280;40313;50.308;30.374;2023-11-18T10:12:22;99869.31;;;2.73;100.00
54407;BME280;40313;50.308;30.374;2023-11-18T10:14:52;99879.13;;;2.98;100.00
54407;BME280;40313;50.308;30.374;2023-11-18T10:17:20;99882.59;;;2.97;100.00
54407;BME280;40313;50.308;30.374;2023-11-18T10:19:55;99892.13;;;2.91;100.00
54407;BME280;40313;50.308;30.374;2023-11-18T10:22:23;99884.72;;;3.17;100.00
54407;BME280;40313;50.308;30.374;2023-11-18T10:24:54;99882.19;;;3.15;100.00
54407;BME280;40313;50.308;30.374;2023-11-18T10:27:23;99881.16;;;3.22;100.00
54407;BME280;40313;50.308;30.374;2023-11-18T10:29:55;99889.75;;;3.24;100.00
54407;BME280;40313;50.308;30.374;2023-11-18T10:32:22;99891.34;;;3.28;100.00
54407;BME280;40313;50.308;30.374;2023-11-18T10:34:53;99896.59;;;3.24;100.00
54407;BME280;40313;50.308;30.374;2023-11-18T10:37:20;99897.75;;;3.10;100.00
54407;BME280;40313;50.308;30.374;2023-11-18T10:39:48;99883.94;;;3.15;100.00
54407;BME280;40313;50.308;30.374;2023-11-18T10:42:18;99895.63;;;3.29;100.00
54407;BME280;40313;50.308;30.374;2023-11-18T10:44:54;99897.91;;;3.43;100.00
54407;BME280;40313;50.308;30.374;2023-11-18T10:47:24;99913.09;;;3.56;100.00
54407;BME280;40313;50.308;30.374;2023-11-18T10:49:52;99905.00;;;3.70;100.00
54407;BME280;40313;50.308;30.374;2023-11-18T10:52:19;99911.72;;;3.77;100.00
54407;BME280;40313;50.308;30.374;2023-11-18T10:54:52;99911.41;;;3.91;100.00
54407;BME280;40313;50.308;30.374;2023-11-18T10:57:23;99896.78;;;3.90;100.00
54407;BME280;40313;50.308;30.374;2023-11-18T10:59:59;99916.81;;;3.82;100.00
54407;BME280;40313;50.308;30.374;2023-11-18T11:02:30;99924.03;;;3.66;100.00
54407;BME280;40313;50.308;30.374;2023-11-18T11:05:01;99932.38;;;2.99;100.00
54407;BME280;40313;50.308;30.374;2023-11-18T11:07:29;99925.31;;;3.07;100.00
54407;BME280;40313;50.308;30.374;2023-11-18T11:09:59;99915.84;;;3.48;100.00
54407;BME280;40313;50.308;30.374;2023-11-18T11:12:33;99927.91;;;3.07;100.00
54407;BME280;40313;50.308;30.374;2023-11-18T11:15:05;99925.00;;;2.82;100.00
54407;BME280;40313;50.308;30.374;2023-11-18T11:17:39;99927.44;;;2.88;100.00
54407;BME280;40313;50.308;30.374;2023-11-18T11:20:13;99927.50;;;2.85;100.00
54407;BME280;40313;50.308;30.374;2023-11-18T11:22:56;99923.06;;;2.93;100.00
54407;BME280;40313;50.308;30.374;2023-11-18T11:25:36;99934.44;;;2.81;100.00
54407;BME280;40313;50.308;30.374;2023-11-18T11:28:11;99933.31;;;2.94;100.00
54407;BME280;40313;50.308;30.374;2023-11-18T11:30:43;99934.31;;;2.87;100.00
54407;BME280;40313;50.308;30.374;2023-11-18T11:33:16;99922.06;;;2.99;100.00
54407;BME280;40313;50.308;30.374;2023-11-18T11:35:49;99933.72;;;2.73;100.00
54407;BME280;40313;50.308;30.374;2023-11-18T11:38:22;99928.25;;;2.90;100.00
54407;BME280;40313;50.308;30.374;2023-11-18T11:40:53;99923.94;;;2.90;100.00
54407;BME280;40313;50.308;30.374;2023-11-18T11:43:22;99920.31;;;3.01;100.00
54407;BME280;40313;50.308;30.374;2023-11-18T11:45:50;99919.59;;;2.92;100.00
54407;BME280;40313;50.308;30.374;2023-11-18T11:48:21;99922.13;;;2.96;100.00
54407;BME280;40313;50.308;30.374;2023-11-18T11:51:19;99913.00;;;2.79;100.00
54407;BME280;40313;50.308;30.374;2023-11-18T11:53:51;99919.09;;;2.75;100.00
54407;BME280;40313;50.308;30.374;2023-11-18T11:56:19;99924.19;;;2.78;100.00
54407;BME280;40313;50.308;30.374;2023-11-18T11:58:51;99928.06;;;2.55;100.00
54407;BME280;40313;50.308;30.374;2023-11-18T12:01:25;99930.47;;;2.65;100.00
54407;BME280;40313;50.308;30.374;2023-11-18T12:03:56;99941.09;;;2.46;100.00
54407;BME280;40313;50.308;30.374;2023-11-18T12:06:23;99931.22;;;2.70;100.00
54407;BME280;40313;50.308;30.374;2023-11-18T12:08:52;99941.31;;;2.34;100.00
54407;BME280;40313;50.308;30.374;2023-11-18T12:11:19;99947.41;;;2.30;100.00
54407;BME280;40313;50.308;30.374;2023-11-18T12:14:03;99948.91;;;2.40;100.00
54407;BME280;40313;50.308;30.374;2023-11-18T12:17:00;99948.19;;;2.35;100.00
54407;BME280;40313;50.308;30.374;2023-11-18T12:19:35;99949.00;;;2.35;100.00
54407;BME280;40313;50.308;30.374;2023-11-18T12:22:11;99948.16;;;2.36;100.00
54407;BME280;40313;50.308;30.374;2023-11-18T12:24:46;99950.88;;;2.27;100.00
54407;BME280;40313;50.308;30.374;2023-11-18T12:27:42;99950.06;;;2.25;100.00
54407;BME280;40313;50.308;30.374;2023-11-18T12:30:39;99959.44;;;2.29;100.00
54407;BME280;40313;50.308;30.374;2023-11-18T12:33:09;99950.97;;;2.21;100.00
54407;BME280;40313;50.308;30.374;2023-11-18T12:35:43;99952.22;;;1.98;100.00
54407;BME280;40313;50.308;30.374;2023-11-18T12:38:35;99957.16;;;2.11;100.00
54407;BME280;40313;50.308;30.374;2023-11-18T12:41:08;99955.66;;;2.47;100.00
54407;BME280;40313;50.308;30.374;2023-11-18T12:43:46;99954.00;;;1.95;100.00
54407;BME280;40313;50.308;30.374;2023-11-18T12:46:47;99965.69;;;2.13;100.00
54407;BME280;40313;50.308;30.374;2023-11-18T12:49:16;99967.28;;;2.20;100.00
54407;BME280;40313;50.308;30.374;2023-11-18T12:51:48;99978.41;;;2.23;100.00
54407;BME280;40313;50.308;30.374;2023-11-18T12:54:16;99977.78;;;2.09;100.00
54407;BME280;40313;50.308;30.374;2023-11-18T12:56:45;99976.25;;;1.96;100.00
54407;BME280;40313;50.308;30.374;2023-11-18T12:59:15;99978.81;;;1.99;100.00
54407;BME280;40313;50.308;30.374;2023-11-18T13:01:46;99982.25;;;1.98;100.00
54407;BME280;40313;50.308;30.374;2023-11-18T13:04:19;99987.03;;;2.19;100.00